This is the latest recevied weather packets stored in our database for station/object DH0GMA. If no packets are shown the sender has not sent any weather packets the latest 10 day(s).
| Time | Temp. | Humidity | Pressure | Rain* | Wind** | Luminosity | Snow |
|---|---|---|---|---|---|---|---|
| 1777434756 | 9.44° C | 63% | 1017.9 hPa | 0 mm | - | - | - |
| 1777434156 | 9.44° C | 63% | 1017.8 hPa | 0 mm | - | - | - |
| 1777433556 | 9.44° C | 63% | 1017.7 hPa | 0 mm | - | - | - |
| 1777432956 | 10° C | 62% | 1017.7 hPa | 0 mm | - | - | - |
| 1777431756 | 10.56° C | 60% | 1017.6 hPa | 0 mm | - | - | - |
| 1777429956 | 10.56° C | 58% | 1017.7 hPa | 0 mm | - | - | - |
| 1777428756 | 11.11° C | 58% | 1017.4 hPa | 0 mm | - | - | - |
| 1777425755 | 11.67° C | 56% | 1017.4 hPa | 0 mm | - | - | - |
| 1777425155 | 11.67° C | 56% | 1017.4 hPa | 0 mm | - | - | - |
| 1777422755 | 11.67° C | 57% | 1017.4 hPa | 0 mm | - | - | - |
| 1777422155 | 12.22° C | 57% | 1017.5 hPa | 0 mm | - | - | - |
| 1777421555 | 12.22° C | 56% | 1017.4 hPa | 0 mm | - | - | - |
| 1777418555 | 12.78° C | 54% | 1017.6 hPa | 0 mm | - | - | - |
| 1777414356 | 13.33° C | 53% | 1017.5 hPa | 0 mm | - | - | - |
| 1777413756 | 13.33° C | 52% | 1017.5 hPa | 0 mm | - | - | - |
| 1777404756 | 15.56° C | 45% | 1017.2 hPa | 0 mm | - | - | - |
| 1777404156 | 16.11° C | 45% | 1016.9 hPa | 0 mm | - | - | - |
| 1777397556 | 17.78° C | 41% | 1015.8 hPa | 0 mm | - | - | - |
| 1777396956 | 18.33° C | 38% | 1015.7 hPa | 0 mm | - | - | - |
| 1777386754 | 20° C | 36% | 1015.4 hPa | 0 mm | - | - | - |
| 1777384955 | 20.56° C | 35% | 1015.5 hPa | 0 mm | - | - | - |
| 1777383154 | 20° C | 38% | 1015.8 hPa | 0 mm | - | - | - |
| 1777382554 | 20° C | 38% | 1015.8 hPa | 0 mm | - | - | - |
| 1777381356 | 19.44° C | 40% | 1016 hPa | 0 mm | - | - | - |
| 1777380756 | 19.44° C | 40% | 1016.1 hPa | 0 mm | - | - | - |
* Rain latest hour (hover to see other rain measurements)
** Current wind speed in m/s (hover to see current wind gust speed)